createdAt,value
2019-06-07T00:01:16.353Z,101405.38
2019-06-07T00:03:49.938Z,101401.08
2019-06-07T00:06:25.489Z,101397.16
2019-06-07T00:08:59.926Z,101385.45
2019-06-07T00:11:33.260Z,101386.37
2019-06-07T00:14:08.529Z,101380.33
2019-06-07T00:16:41.770Z,101370.31
2019-06-07T00:19:16.265Z,101373.37
2019-06-07T00:22:15.873Z,101366.83
2019-06-07T00:24:25.130Z,101361.19
2019-06-07T00:26:59.288Z,101344.61
2019-06-07T00:29:32.745Z,101344.70
2019-06-07T00:32:06.061Z,101347.39
2019-06-07T00:34:39.389Z,101346.30
2019-06-07T00:37:14.223Z,101344.70
2019-06-07T00:40:12.694Z,101349.97
2019-06-07T00:42:24.240Z,101344.77
2019-06-07T00:44:57.931Z,101348.94
2019-06-07T00:47:31.260Z,101348.97
2019-06-07T00:50:05.115Z,101350.80
2019-06-07T00:55:15.248Z,101356.34
2019-06-07T00:57:48.583Z,101351.31
2019-06-07T01:00:25.216Z,101358.71
2019-06-07T01:02:56.934Z,101355.27
2019-06-07T01:05:31.630Z,101362.28
2019-06-07T01:08:05.038Z,101356.64
2019-06-07T01:10:53.017Z,101356.64
2019-06-07T01:13:15.487Z,101354.47
2019-06-07T01:15:50.447Z,101350.17
2019-06-07T01:18:37.360Z,101339.78
2019-06-07T01:20:58.776Z,101343.25
2019-06-07T01:24:05.525Z,101339.38
2019-06-07T01:26:07.145Z,101335.21
2019-06-07T01:28:42.064Z,101330.53
2019-06-07T01:31:19.200Z,101326.16
2019-06-07T01:33:51.445Z,101318.18
2019-06-07T01:36:29.145Z,101318.04
2019-06-07T01:39:00.647Z,101325.20
2019-06-07T01:41:36.001Z,101299.46
2019-06-07T01:44:10.026Z,101325.41
2019-06-07T01:46:43.322Z,101326.92
2019-06-07T01:49:19.625Z,101323.92
2019-06-07T01:51:53.258Z,101317.94
2019-06-07T01:54:52.104Z,101325.84
2019-06-07T01:57:01.599Z,101317.59
2019-06-07T01:59:34.945Z,101325.05
2019-06-07T02:02:08.326Z,101325.05
2019-06-07T02:04:41.670Z,101317.63
2019-06-07T02:07:14.980Z,101309.23
2019-06-07T02:09:48.304Z,101316.16
2019-06-07T02:12:31.242Z,101311.06
2019-06-07T02:14:56.656Z,101315.49
2019-06-07T02:17:32.550Z,101308.98
2019-06-07T02:20:05.352Z,101315.11
2019-06-07T02:22:38.660Z,101313.80
2019-06-07T02:27:47.006Z,101309.56
2019-06-07T02:30:44.900Z,101312.71
2019-06-07T02:32:55.415Z,101258.49
2019-06-07T02:35:38.310Z,101309.92
2019-06-07T02:38:03.645Z,101306.09
2019-06-07T02:40:37.615Z,101304.41
2019-06-07T02:43:11.320Z,101301.80
2019-06-07T02:45:44.656Z,101298.73
2019-06-07T02:48:18.020Z,101294.84
2019-06-07T02:50:52.165Z,101284.06
2019-06-07T02:53:27.078Z,101274.66
2019-06-07T02:58:41.456Z,101270.91
2019-06-07T03:01:10.661Z,101265.72
2019-06-07T03:03:44.029Z,101270.72
2019-06-07T03:06:17.402Z,101266.99
2019-06-07T03:08:50.703Z,101268.78
2019-06-07T03:11:24.423Z,101261.50
2019-06-07T03:13:57.727Z,101255.61
2019-06-07T03:16:36.767Z,101253.92
2019-06-07T03:19:06.969Z,101256.58
2019-06-07T03:21:41.623Z,101256.64
2019-06-07T03:24:16.044Z,101261.01
2019-06-07T03:29:24.429Z,101255.78
2019-06-07T03:31:59.404Z,101246.67
2019-06-07T03:34:38.711Z,101245.84
2019-06-07T03:37:07.783Z,101250.59
2019-06-07T03:39:41.275Z,101243.70
2019-06-07T03:42:14.687Z,101244.13
2019-06-07T03:44:47.986Z,101248.28
2019-06-07T03:47:21.161Z,101247.08
2019-06-07T03:49:54.469Z,101243.23
2019-06-07T03:52:29.918Z,101243.34
2019-06-07T03:55:04.737Z,101238.77
2019-06-07T03:58:29.474Z,101236.63
2019-06-07T04:00:13.095Z,101235.39
2019-06-07T04:02:46.441Z,101227.11
2019-06-07T04:05:19.754Z,101226.52
2019-06-07T04:07:53.076Z,101230.13
2019-06-07T04:10:45.749Z,101231.47
2019-06-07T04:13:01.403Z,101231.95
2019-06-07T04:15:38.299Z,101229.78
2019-06-07T04:18:10.736Z,101227.17
2019-06-07T04:20:44.283Z,101220.23
2019-06-07T04:23:27.883Z,101217.20
2019-06-07T04:25:55.265Z,101218.17
2019-06-07T04:29:16.480Z,101217.93
2019-06-07T04:31:03.649Z,101217.52
2019-06-07T04:33:39.747Z,101221.02
2019-06-07T04:36:11.980Z,101213.63
2019-06-07T04:38:45.311Z,101217.17
2019-06-07T04:41:19.263Z,101203.49
2019-06-07T04:43:52.633Z,101200.91
2019-06-07T04:46:25.915Z,101213.11
2019-06-07T04:49:01.195Z,101207.72
2019-06-07T04:51:36.590Z,101211.05
2019-06-07T04:54:09.647Z,101203.87
2019-06-07T04:56:44.704Z,101198.71
2019-06-07T05:00:00.301Z,101190.05
2019-06-07T05:01:54.598Z,101192.66
2019-06-07T05:04:31.452Z,101194.42
2019-06-07T05:07:04.573Z,101185.59
2019-06-07T05:09:41.159Z,101194.62
2019-06-07T05:12:12.945Z,101186.02
2019-06-07T05:14:46.300Z,101184.30
2019-06-07T05:17:19.603Z,101186.09
2019-06-07T05:19:52.758Z,101176.14
2019-06-07T05:22:26.073Z,101171.62
2019-06-07T05:24:59.507Z,101169.52
2019-06-07T05:27:34.338Z,101163.89
2019-06-07T05:30:50.681Z,101164.98
2019-06-07T05:32:46.094Z,101159.71
2019-06-07T05:35:20.510Z,101157.17
2019-06-07T05:37:53.906Z,101157.25
2019-06-07T05:40:42.965Z,101150.87
2019-06-07T05:43:22.734Z,101144.06
2019-06-07T05:45:56.008Z,101137.20
2019-06-07T05:48:29.308Z,101126.09
2019-06-07T05:51:02.644Z,101121.25
2019-06-07T05:53:38.966Z,101120.48
2019-06-07T05:56:12.082Z,101118.76
2019-06-07T05:58:45.731Z,101121.00
2019-06-07T06:01:42.698Z,101122.31
2019-06-07T06:03:54.164Z,101130.63
2019-06-07T06:06:27.541Z,101128.02
2019-06-07T06:09:13.525Z,101129.97
2019-06-07T06:11:49.501Z,101113.75
2019-06-07T06:14:10.927Z,101114.94
2019-06-07T06:16:48.004Z,101114.64
2019-06-07T06:19:20.045Z,101116.48
2019-06-07T06:21:53.387Z,101119.05
2019-06-07T06:24:26.715Z,101113.83
2019-06-07T06:27:18.620Z,101111.21
2019-06-07T06:29:35.970Z,101109.05
2019-06-07T06:34:49.365Z,101109.42
2019-06-07T06:37:20.193Z,101110.72
2019-06-07T06:39:53.658Z,101113.41
2019-06-07T06:42:27.009Z,101122.97
2019-06-07T06:45:00.341Z,101113.38
2019-06-07T06:47:33.679Z,101112.56
2019-06-07T06:50:07.060Z,101107.74
2019-06-07T06:52:45.141Z,101107.22
2019-06-07T06:55:16.981Z,101097.77
2019-06-07T06:57:51.362Z,101085.41
2019-06-07T07:00:56.869Z,101080.13
2019-06-07T07:03:56.119Z,101078.25
2019-06-07T07:05:56.601Z,101083.76
2019-06-07T07:08:29.933Z,101084.02
2019-06-07T07:11:03.325Z,101076.67
2019-06-07T07:13:36.662Z,101069.69
2019-06-07T07:16:09.989Z,101059.36
2019-06-07T07:18:44.283Z,101056.63
2019-06-07T07:21:18.240Z,101044.08
2019-06-07T07:24:12.334Z,101048.64
2019-06-07T07:26:26.728Z,101053.72
2019-06-07T07:29:00.043Z,101046.05
2019-06-07T07:31:33.591Z,101036.44
2019-06-07T07:34:31.881Z,101039.56
2019-06-07T07:36:47.114Z,101034.57
2019-06-07T07:39:17.318Z,101040.32
2019-06-07T07:42:13.936Z,101040.83
2019-06-07T07:44:25.867Z,101038.41
2019-06-07T07:47:00.777Z,101041.48
2019-06-07T07:49:34.155Z,101044.30
2019-06-07T07:52:07.486Z,101040.52
2019-06-07T07:54:40.907Z,101020.95
2019-06-07T07:57:14.033Z,101010.94
2019-06-07T08:00:01.497Z,101012.20
2019-06-07T08:02:22.407Z,101012.15
2019-06-07T08:07:31.851Z,101000.88
2019-06-07T08:10:05.543Z,101001.34
2019-06-07T08:13:00.121Z,100978.99
2019-06-07T08:15:13.928Z,100992.07
2019-06-07T08:17:50.383Z,100975.31
2019-06-07T08:20:22.290Z,100973.29
2019-06-07T08:22:59.695Z,100968.64
2019-06-07T08:25:32.171Z,100973.47
2019-06-07T08:28:05.476Z,100967.84
2019-06-07T08:31:03.675Z,100967.39
2019-06-07T08:33:25.845Z,100955.56
2019-06-07T08:36:19.360Z,100944.34
2019-06-07T08:38:29.747Z,100936.41
2019-06-07T08:41:10.924Z,100925.80
2019-06-07T08:43:36.373Z,100936.43
2019-06-07T08:46:09.757Z,100928.66
2019-06-07T08:48:44.301Z,100939.33
2019-06-07T08:51:18.614Z,100928.61
2019-06-07T08:54:08.566Z,100923.97
2019-06-07T08:56:27.003Z,100916.23
2019-06-07T08:59:06.285Z,100910.64
2019-06-07T09:01:35.363Z,100909.13
2019-06-07T09:04:11.213Z,100903.80
2019-06-07T09:09:18.773Z,100891.72
2019-06-07T09:11:52.437Z,100888.77
2019-06-07T09:14:27.160Z,100888.99
2019-06-07T09:17:07.921Z,100891.58
2019-06-07T09:19:35.536Z,100888.55
2019-06-07T09:22:11.459Z,100895.55
2019-06-07T09:24:46.158Z,100889.46
2019-06-07T09:27:19.541Z,100892.30
2019-06-07T09:29:52.880Z,100886.19
2019-06-07T09:32:26.213Z,100871.44
2019-06-07T09:35:05.400Z,100864.60
2019-06-07T09:38:04.166Z,100860.58
2019-06-07T09:40:24.128Z,100848.94
2019-06-07T09:42:46.005Z,100849.14
2019-06-07T09:45:19.322Z,100841.34
2019-06-07T09:47:52.548Z,100828.13
2019-06-07T09:50:27.434Z,100832.91
2019-06-07T09:53:11.715Z,100829.14
2019-06-07T09:55:35.970Z,100822.19
2019-06-07T09:58:48.566Z,100812.48
2019-06-07T10:00:44.482Z,100800.61
2019-06-07T10:03:22.432Z,100799.06
2019-06-07T10:05:53.151Z,100801.73
2019-06-07T10:09:42.628Z,100807.92
2019-06-07T10:11:02.613Z,100805.48
2019-06-07T10:13:36.025Z,100797.67
2019-06-07T10:16:10.240Z,100787.55
2019-06-07T10:18:43.620Z,100793.70
2019-06-07T10:21:16.936Z,100778.75
2019-06-07T10:23:50.333Z,100763.59
2019-06-07T10:26:23.646Z,100771.57
2019-06-07T10:29:00.011Z,100766.34
2019-06-07T10:31:33.310Z,100755.06
2019-06-07T10:34:06.706Z,100759.49
2019-06-07T10:36:40.161Z,100663.33
2019-06-07T10:39:13.578Z,100746.98
2019-06-07T10:41:46.895Z,100736.16
2019-06-07T10:44:20.263Z,100725.77
2019-06-07T10:46:53.563Z,100736.30
2019-06-07T10:49:26.870Z,100733.43
2019-06-07T10:52:03.358Z,100738.95
2019-06-07T10:54:35.320Z,100736.91
2019-06-07T10:57:11.909Z,100725.23
2019-06-07T10:59:43.839Z,100714.95
2019-06-07T11:02:17.259Z,100706.34
2019-06-07T11:04:52.232Z,100694.97
2019-06-07T11:07:27.183Z,100690.12
2019-06-07T11:10:07.218Z,100678.80
2019-06-07T11:12:36.049Z,100695.77
2019-06-07T11:15:11.051Z,100680.22
2019-06-07T11:17:44.734Z,100670.92
2019-06-07T11:20:18.637Z,100676.86
2019-06-07T11:22:52.173Z,100670.71
2019-06-07T11:25:25.565Z,100668.69
2019-06-07T11:27:58.855Z,100658.47
2019-06-07T11:30:32.212Z,100663.44
2019-06-07T11:33:06.392Z,100653.91
2019-06-07T11:35:41.383Z,100645.22
2019-06-07T11:38:14.758Z,100636.52
2019-06-07T11:40:48.304Z,100624.50
2019-06-07T11:43:21.608Z,100612.73
2019-06-07T11:45:56.146Z,100614.63
2019-06-07T11:48:29.461Z,100614.80
2019-06-07T11:51:02.809Z,100609.91
2019-06-07T11:53:37.951Z,100615.99
2019-06-07T11:56:13.902Z,100597.52
2019-06-07T11:58:47.467Z,100595.95
2019-06-07T12:01:20.827Z,100602.34
2019-06-07T12:03:54.174Z,100598.78
2019-06-07T12:06:27.547Z,100589.59
2019-06-07T12:09:00.866Z,100578.33
2019-06-07T12:11:35.891Z,100581.03
2019-06-07T12:14:10.878Z,100575.05
2019-06-07T12:16:44.570Z,100576.78
2019-06-07T12:19:17.928Z,100577.36
2019-06-07T12:21:51.292Z,100571.20
2019-06-07T12:24:24.754Z,100562.61
2019-06-07T12:26:59.618Z,100558.34
2019-06-07T12:29:34.038Z,100551.04
2019-06-07T12:32:07.674Z,100544.61
2019-06-07T12:34:41.423Z,100555.18
2019-06-07T12:37:18.949Z,100552.22
2019-06-07T12:39:49.819Z,100548.94
2019-06-07T12:42:24.390Z,100556.95
2019-06-07T12:44:57.756Z,100562.24
2019-06-07T12:47:31.134Z,100540.19
2019-06-07T12:50:07.065Z,100531.77
2019-06-07T12:52:40.410Z,100541.29
2019-06-07T12:55:14.082Z,100534.79
2019-06-07T12:57:47.902Z,100538.91
2019-06-07T13:00:22.456Z,100528.44
2019-06-07T13:02:55.818Z,100518.94
2019-06-07T13:05:28.955Z,100522.95
2019-06-07T13:08:02.319Z,100523.38
2019-06-07T13:10:35.847Z,100525.70
2019-06-07T13:13:09.400Z,100525.70
2019-06-07T13:15:44.331Z,100516.32
2019-06-07T13:18:19.799Z,100525.03
2019-06-07T13:20:55.383Z,100522.44
2019-06-07T13:23:29.027Z,100522.95
2019-06-07T13:26:03.069Z,100522.28
2019-06-07T13:28:36.598Z,100515.64
2019-06-07T13:31:10.014Z,100522.23
2019-06-07T13:33:44.973Z,100512.48
2019-06-07T13:36:18.311Z,100505.03
2019-06-07T13:38:51.759Z,100504.87
2019-06-07T13:41:36.570Z,100505.50
2019-06-07T13:44:00.157Z,100494.27
2019-06-07T13:46:33.511Z,100500.05
2019-06-07T13:49:06.817Z,100497.56
2019-06-07T13:51:40.932Z,100493.33
2019-06-07T13:54:14.229Z,100497.77
2019-06-07T13:57:01.658Z,100501.17
2019-06-07T13:59:24.094Z,100493.02
2019-06-07T14:01:57.974Z,100487.63
2019-06-07T14:04:31.212Z,100488.67
2019-06-07T14:07:05.051Z,100488.67
2019-06-07T14:09:38.392Z,100490.12
2019-06-07T14:12:11.692Z,100482.77
2019-06-07T14:14:45.359Z,100477.16
2019-06-07T14:17:21.075Z,100484.13
2019-06-07T14:19:55.428Z,100479.50
2019-06-07T14:22:29.078Z,100476.95
2019-06-07T14:25:02.640Z,100477.34
2019-06-07T14:27:36.081Z,100476.18
2019-06-07T14:30:09.454Z,100466.11
2019-06-07T14:32:42.876Z,100470.24
2019-06-07T14:35:16.547Z,100469.33
2019-06-07T14:37:50.060Z,100473.20
2019-06-07T14:40:23.537Z,100465.10
2019-06-07T14:42:56.935Z,100461.17
2019-06-07T14:45:32.604Z,100463.51
2019-06-07T14:48:05.731Z,100448.54
2019-06-07T14:50:40.133Z,100467.50
2019-06-07T14:53:13.697Z,100469.42
2019-06-07T14:55:47.195Z,100472.56
2019-06-07T14:58:22.129Z,100474.78
2019-06-07T15:00:55.489Z,100476.48
2019-06-07T15:03:28.841Z,100474.27
2019-06-07T15:06:02.237Z,100478.09
2019-06-07T15:08:35.609Z,100478.25
2019-06-07T15:11:08.923Z,100475.58
2019-06-07T15:13:43.623Z,100478.16
2019-06-07T15:16:16.980Z,100484.07
2019-06-07T15:18:50.331Z,100489.09
2019-06-07T15:21:23.766Z,100500.57
2019-06-07T15:23:57.109Z,100515.77
2019-06-07T15:26:30.603Z,100561.86
2019-06-07T15:29:04.227Z,100588.16
2019-06-07T15:31:38.698Z,100602.69
2019-06-07T15:34:12.137Z,100602.70
2019-06-07T15:36:45.529Z,100608.72
2019-06-07T15:39:18.906Z,100606.78
2019-06-07T15:41:52.264Z,100606.45
2019-06-07T15:44:25.640Z,100612.27
2019-06-07T15:46:58.963Z,100605.70
2019-06-07T15:49:32.425Z,100614.95
2019-06-07T15:52:05.789Z,100611.62
2019-06-07T15:54:40.601Z,100621.02
2019-06-07T15:57:14.169Z,100627.05
2019-06-07T15:59:47.724Z,100609.85
2019-06-07T16:02:21.153Z,100598.32
2019-06-07T16:04:54.587Z,100591.33
2019-06-07T16:07:27.899Z,100591.30
2019-06-07T16:10:01.221Z,100601.13
2019-06-07T16:12:34.736Z,100601.85
2019-06-07T16:15:08.045Z,100611.62
2019-06-07T16:17:42.077Z,100610.82
2019-06-07T16:20:16.446Z,100597.79
2019-06-07T16:22:49.817Z,100607.29
2019-06-07T16:25:22.935Z,100614.47
2019-06-07T16:27:56.341Z,100606.64
2019-06-07T16:30:29.649Z,100595.78
2019-06-07T16:33:02.988Z,100589.36
2019-06-07T16:35:36.960Z,100590.22
2019-06-07T16:38:10.307Z,100593.01
2019-06-07T16:40:44.623Z,100604.59
2019-06-07T16:43:18.694Z,100609.85
2019-06-07T16:45:52.309Z,100590.08
2019-06-07T16:48:25.626Z,100607.61
2019-06-07T16:50:58.939Z,100612.07
2019-06-07T16:53:32.287Z,100619.73
2019-06-07T16:56:05.596Z,100627.41
2019-06-07T16:58:40.173Z,100625.64
2019-06-07T17:01:13.703Z,100624.28
2019-06-07T17:03:47.646Z,100627.52
2019-06-07T17:06:22.071Z,100646.75
2019-06-07T17:08:55.629Z,100658.13
2019-06-07T17:11:29.304Z,100660.17
2019-06-07T17:14:03.324Z,100648.92
2019-06-07T17:16:36.697Z,100642.70
2019-06-07T17:19:10.048Z,100626.20
2019-06-07T17:21:43.422Z,100592.94
2019-06-07T17:24:16.757Z,100574.36
2019-06-07T17:26:50.103Z,100574.11
2019-06-07T17:29:23.654Z,100570.98
2019-06-07T17:31:56.976Z,100589.56
2019-06-07T17:34:30.296Z,100573.94
2019-06-07T17:37:03.890Z,100518.48
2019-06-07T17:39:37.297Z,100538.27
2019-06-07T17:42:10.707Z,100542.86
2019-06-07T17:44:45.001Z,100579.52
2019-06-07T17:47:18.456Z,100610.37
2019-06-07T17:49:52.267Z,100607.83
2019-06-07T17:52:25.658Z,100620.70
2019-06-07T17:54:59.533Z,100594.71
2019-06-07T17:57:32.870Z,100590.98
2019-06-07T18:00:27.510Z,100605.47
2019-06-07T18:02:42.755Z,100614.17
2019-06-07T18:05:16.660Z,100608.09
2019-06-07T18:07:51.715Z,100606.09
2019-06-07T18:10:38.711Z,100607.23
2019-06-07T18:13:12.203Z,100592.61
2019-06-07T18:15:51.651Z,100580.89
2019-06-07T18:18:22.344Z,100586.45
2019-06-07T18:20:56.153Z,100571.28
2019-06-07T18:23:29.467Z,100569.84
2019-06-07T18:26:02.812Z,100575.19
2019-06-07T18:28:36.155Z,100577.81
2019-06-07T18:31:09.542Z,100571.91
2019-06-07T18:33:42.856Z,100566.28
2019-06-07T18:36:16.309Z,100577.38
2019-06-07T18:38:50.918Z,100576.27
2019-06-07T18:41:26.315Z,100564.38
2019-06-07T18:43:59.713Z,100575.20
2019-06-07T18:46:33.182Z,100565.26
2019-06-07T18:49:06.832Z,100568.87
2019-06-07T18:51:40.203Z,100573.66
2019-06-07T18:54:14.757Z,100572.09
2019-06-07T18:56:48.777Z,100571.03
2019-06-07T18:59:22.132Z,100562.13
2019-06-07T19:01:55.581Z,100565.48
2019-06-07T19:04:28.869Z,100592.38
2019-06-07T19:07:02.246Z,100595.70
2019-06-07T19:09:35.490Z,100600.42
2019-06-07T19:12:08.910Z,100594.27
2019-06-07T19:14:42.606Z,100596.50
2019-06-07T19:17:16.017Z,100604.24
2019-06-07T19:19:49.830Z,100602.52
2019-06-07T19:22:23.287Z,100609.98
2019-06-07T19:24:57.019Z,100608.06
2019-06-07T19:27:32.981Z,100612.12
2019-06-07T19:30:06.918Z,100614.30
2019-06-07T19:32:40.249Z,100614.53
2019-06-07T19:35:14.565Z,100608.47
2019-06-07T19:37:48.156Z,100606.51
2019-06-07T19:40:22.863Z,100607.08
2019-06-07T19:42:56.557Z,100605.84
2019-06-07T19:45:34.265Z,100607.27
2019-06-07T19:48:07.763Z,100599.87
2019-06-07T19:50:41.290Z,100600.21
2019-06-07T19:53:16.080Z,100594.18
2019-06-07T19:55:50.243Z,100588.61
2019-06-07T19:58:24.205Z,100586.78
2019-06-07T20:00:57.647Z,100582.97
2019-06-07T20:03:31.199Z,100582.91
2019-06-07T20:06:05.174Z,100585.48
2019-06-07T20:08:38.833Z,100586.39
2019-06-07T20:11:12.165Z,100589.06
2019-06-07T20:13:45.540Z,100585.26
2019-06-07T20:16:20.335Z,100583.92
2019-06-07T20:18:56.157Z,100592.28
2019-06-07T20:21:29.623Z,100589.16
2019-06-07T20:24:22.480Z,100595.05
2019-06-07T20:26:39.123Z,100595.05
2019-06-07T20:29:25.535Z,100593.88
2019-06-07T20:31:47.795Z,100598.31
2019-06-07T20:34:21.150Z,100602.84
2019-06-07T20:36:54.486Z,100598.26
2019-06-07T20:39:27.805Z,100606.70
2019-06-07T20:42:01.352Z,100602.42
2019-06-07T20:44:35.614Z,100600.77
2019-06-07T20:47:08.906Z,100607.97
2019-06-07T20:49:42.259Z,100604.95
2019-06-07T20:52:15.588Z,100612.00
2019-06-07T20:54:48.964Z,100615.11
2019-06-07T20:57:22.338Z,100595.50
2019-06-07T20:59:55.791Z,100602.05
2019-06-07T21:02:29.113Z,100594.38
2019-06-07T21:05:03.510Z,100590.09
2019-06-07T21:07:38.013Z,100588.45
2019-06-07T21:10:11.604Z,100579.03
2019-06-07T21:12:45.934Z,100576.47
2019-06-07T21:15:19.274Z,100574.51
2019-06-07T21:17:52.698Z,100564.17
2019-06-07T21:20:25.874Z,100566.00
2019-06-07T21:23:00.695Z,100566.05
2019-06-07T21:25:34.148Z,100552.14
2019-06-07T21:28:07.627Z,100559.39
2019-06-07T21:30:41.147Z,100564.48
2019-06-07T21:33:16.075Z,100559.85
2019-06-07T21:35:49.425Z,100557.23
2019-06-07T21:38:22.748Z,100553.11
2019-06-07T21:40:56.133Z,100547.08
2019-06-07T21:43:29.468Z,100543.23
2019-06-07T21:46:07.274Z,100549.90
2019-06-07T21:48:37.880Z,100543.47
2019-06-07T21:51:11.206Z,100544.80
2019-06-07T21:53:44.590Z,100534.91
2019-06-07T21:56:17.970Z,100536.81
2019-06-07T21:58:51.452Z,100529.75
2019-06-07T22:01:25.145Z,100532.99
2019-06-07T22:03:58.523Z,100528.56
2019-06-07T22:06:31.864Z,100522.79
2019-06-07T22:09:07.490Z,100531.17
2019-06-07T22:11:42.849Z,100521.63
2019-06-07T22:14:16.163Z,100523.47
2019-06-07T22:16:49.529Z,100527.45
2019-06-07T22:19:22.832Z,100519.20
2019-06-07T22:22:02.599Z,100521.92
2019-06-07T22:24:31.193Z,100518.46
2019-06-07T22:27:04.879Z,100524.23
2019-06-07T22:29:38.257Z,100524.68
2019-06-07T22:32:13.003Z,100523.64
2019-06-07T22:34:46.695Z,100530.23
2019-06-07T22:37:23.458Z,100529.52
2019-06-07T22:39:55.028Z,100531.23
2019-06-07T22:42:28.372Z,100528.35
2019-06-07T22:45:01.749Z,100530.58
2019-06-07T22:47:36.777Z,100532.08
2019-06-07T22:50:10.625Z,100530.48
2019-06-07T22:52:44.259Z,100539.62
2019-06-07T22:55:18.188Z,100539.13
2019-06-07T22:57:51.706Z,100543.16
2019-06-07T23:00:25.093Z,100538.48
2019-06-07T23:02:58.583Z,100528.55
2019-06-07T23:05:31.962Z,100540.11
2019-06-07T23:08:05.297Z,100541.08
2019-06-07T23:10:40.143Z,100545.51
2019-06-07T23:13:13.656Z,100543.82
2019-06-07T23:15:47.006Z,100541.32
2019-06-07T23:18:20.342Z,100549.24
2019-06-07T23:20:53.657Z,100561.57
2019-06-07T23:23:26.999Z,100558.08
2019-06-07T23:26:00.300Z,100554.73
2019-06-07T23:28:33.690Z,100559.23
2019-06-07T23:31:07.001Z,100554.07
2019-06-07T23:33:40.358Z,100554.09
2019-06-07T23:36:15.078Z,100556.77
2019-06-07T23:38:48.478Z,100554.25
2019-06-07T23:41:22.332Z,100552.20
2019-06-07T23:43:55.777Z,100551.38
2019-06-07T23:46:29.089Z,100544.09
2019-06-07T23:49:02.428Z,100552.44
2019-06-07T23:51:35.729Z,100553.85
2019-06-07T23:54:09.071Z,100546.81
2019-06-07T23:56:42.386Z,100538.56
2019-06-07T23:59:16.097Z,100547.72
